Time;durP1;ratioP1;P1;durP2;ratioP2;P2;SDS_P1;SDS_P2;PMS_P1;PMS_P2;Temp;Humidity;BMP_temperature;BMP_pressure;BME280_temperature;BME280_humidity;BME280_pressure;Samples;Min_cycle;Max_cycle;Signal;HPM_P1;HPM_P2
2022/09/25 00:02:07;;;;;;;21.83;16.92;;;12.20;99.90;;;;;;5033875;28;20188;-66
2022/09/25 00:04:35;;;;;;;25.27;15.95;;;12.20;99.90;;;;;;5033603;28;20235;-65
2022/09/25 00:07:04;;;;;;;20.33;15.65;;;12.20;99.90;;;;;;5033644;28;20548;-65
2022/09/25 00:09:32;;;;;;;22.77;17.20;;;12.20;99.90;;;;;;5033681;28;20406;-65
2022/09/25 00:12:01;;;;;;;22.75;18.23;;;12.20;99.90;;;;;;5033568;28;20212;-65
2022/09/25 00:14:31;;;;;;;22.52;18.05;;;12.20;99.90;;;;;;5033515;28;20228;-66
2022/09/25 00:17:00;;;;;;;21.80;18.23;;;12.20;99.90;;;;;;5033897;28;20192;-66
2022/09/25 00:22:15;;;;;;;20.02;15.73;;;12.20;99.90;;;;;;5033401;28;20612;-66
2022/09/25 00:24:44;;;;;;;22.35;18.33;;;12.20;99.90;;;;;;5033224;28;20228;-65
2022/09/25 00:27:13;;;;;;;24.58;18.50;;;12.20;99.90;;;;;;5033314;28;20675;-65
2022/09/25 00:29:43;;;;;;;24.10;18.27;;;12.20;99.90;;;;;;5033381;28;20201;-65
2022/09/25 00:32:12;;;;;;;23.23;18.55;;;12.10;99.90;;;;;;5033115;28;20204;-65
2022/09/25 00:34:41;;;;;;;25.05;17.67;;;12.10;99.90;;;;;;5033144;28;20677;-66
2022/09/25 00:37:10;;;;;;;25.17;19.40;;;12.10;99.90;;;;;;5032864;28;20211;-65
2022/09/25 00:39:38;;;;;;;24.05;18.55;;;12.20;99.90;;;;;;5033046;28;20195;-66
2022/09/25 00:42:07;;;;;;;26.05;18.98;;;12.20;99.90;;;;;;5033051;28;20188;-65
2022/09/25 00:44:58;;;;;;;24.75;18.98;;;12.10;99.90;;;;;;5032843;28;20216;-66
2022/09/25 00:47:39;;;;;;;26.83;19.52;;;12.10;99.90;;;;;;5032972;28;20185;-65
2022/09/25 00:50:17;;;;;;;28.23;21.25;;;12.20;99.90;;;;;;5032760;28;20199;-65
2022/09/25 00:52:47;;;;;;;24.83;18.02;;;12.10;99.90;;;;;;5033415;28;20679;-66
2022/09/25 00:55:18;;;;;;;21.35;16.42;;;12.10;99.90;;;;;;5032710;28;20216;-66
2022/09/25 00:57:50;;;;;;;20.58;16.70;;;12.20;99.90;;;;;;5033584;28;20204;-64
2022/09/25 01:00:20;;;;;;;21.60;17.60;;;12.20;99.90;;;;;;5032753;28;20185;-67
2022/09/25 01:02:53;;;;;;;22.17;18.20;;;12.20;99.90;;;;;;5032656;28;20659;-65
2022/09/25 01:05:25;;;;;;;22.55;17.60;;;12.20;99.90;;;;;;5032583;28;20215;-66
2022/09/25 01:07:57;;;;;;;24.65;18.05;;;12.20;99.90;;;;;;5032750;28;20199;-65
2022/09/25 01:10:27;;;;;;;21.20;16.88;;;12.20;99.90;;;;;;5032610;28;20189;-66
2022/09/25 01:12:57;;;;;;;23.17;17.70;;;12.20;99.90;;;;;;5032589;28;20200;-67
2022/09/25 01:15:35;;;;;;;25.40;19.92;;;12.10;99.90;;;;;;5032498;28;20216;-66
2022/09/25 01:18:13;;;;;;;25.80;19.52;;;12.20;99.90;;;;;;5032157;28;20200;-66
2022/09/25 01:20:59;;;;;;;28.55;21.13;;;12.20;99.90;;;;;;5032529;28;20576;-66
2022/09/25 01:23:45;;;;;;;31.95;21.13;;;12.20;99.90;;;;;;5032325;28;20192;-65
2022/09/25 01:26:31;;;;;;;35.05;22.23;;;12.20;99.90;;;;;;5018973;28;20225;-65
2022/09/25 01:29:08;;;;;;;34.20;22.10;;;12.20;99.90;;;;;;5012677;28;20202;-65
2022/09/25 01:31:42;;;;;;;30.98;21.00;;;12.20;99.90;;;;;;5012462;28;20200;-65
2022/09/25 01:34:18;;;;;;;30.45;20.52;;;12.20;99.90;;;;;;5012539;28;20587;-65
2022/09/25 01:36:53;;;;;;;27.75;20.48;;;12.20;99.90;;;;;;5012813;28;20588;-66
2022/09/25 01:39:27;;;;;;;31.75;20.73;;;12.20;99.90;;;;;;5012639;28;20189;-65
2022/09/25 01:42:01;;;;;;;37.78;21.85;;;12.20;99.90;;;;;;5012482;28;20185;-66
2022/09/25 01:44:36;;;;;;;30.00;19.45;;;12.10;99.90;;;;;;5014104;28;20697;-65
2022/09/25 01:47:10;;;;;;;27.27;18.88;;;12.20;99.90;;;;;;5016693;28;20711;-66
2022/09/25 01:49:44;;;;;;;36.55;20.30;;;12.20;99.90;;;;;;5016756;28;20204;-66
2022/09/25 01:52:17;;;;;;;29.25;20.77;;;12.20;99.90;;;;;;5016763;28;20208;-65
2022/09/25 01:54:51;;;;;;;34.22;22.83;;;12.20;99.90;;;;;;5016324;28;20228;-65
2022/09/25 01:57:23;;;;;;;35.40;23.42;;;12.20;99.90;;;;;;5016408;28;20196;-65
2022/09/25 01:59:57;;;;;;;37.92;24.27;;;12.20;99.90;;;;;;5016372;28;20196;-66
2022/09/25 02:02:30;;;;;;;37.33;24.63;;;12.20;99.90;;;;;;5016259;28;20276;-67
2022/09/25 02:05:04;;;;;;;31.27;22.98;;;12.20;99.90;;;;;;5016195;28;20620;-66
2022/09/25 02:07:40;;;;;;;30.98;20.27;;;12.20;99.90;;;;;;5016202;28;20684;-66
2022/09/25 02:10:12;;;;;;;34.97;21.08;;;12.20;99.90;;;;;;5016400;28;20215;-66
2022/09/25 02:12:45;;;;;;;29.58;21.48;;;12.20;99.90;;;;;;5016873;28;20216;-64
2022/09/25 02:15:20;;;;;;;33.78;22.13;;;12.20;99.90;;;;;;5016044;28;20217;-66
2022/09/25 02:20:41;;;;;;;31.38;20.73;;;12.10;99.90;;;;;;5015874;28;20567;-65
2022/09/25 02:23:17;;;;;;;44.42;21.08;;;12.20;99.90;;;;;;5015930;28;20189;-64
2022/09/25 02:25:51;;;;;;;32.22;20.63;;;12.20;99.90;;;;;;5015770;28;20224;-65
2022/09/25 02:28:20;;;;;;;33.65;20.70;;;12.10;99.90;;;;;;5015807;28;20196;-66
2022/09/25 02:30:53;;;;;;;33.15;20.65;;;12.10;99.90;;;;;;5015683;28;20216;-65
2022/09/25 02:33:22;;;;;;;32.22;21.17;;;12.10;99.90;;;;;;5015897;28;20216;-66
2022/09/25 02:35:50;;;;;;;31.73;21.33;;;12.10;99.90;;;;;;5015621;28;20216;-64
2022/09/25 02:38:20;;;;;;;33.25;21.23;;;12.10;99.90;;;;;;5015609;28;20684;-65
2022/09/25 02:40:55;;;;;;;32.75;23.67;;;12.10;99.90;;;;;;5015370;28;20216;-66
2022/09/25 02:43:38;;;;;;;34.30;23.73;;;12.10;99.90;;;;;;5015554;28;20188;-64
2022/09/25 02:46:13;;;;;;;33.42;23.27;;;12.10;99.90;;;;;;5015535;28;20194;-65
2022/09/25 02:48:51;;;;;;;32.78;23.88;;;12.10;99.90;;;;;;5015449;28;20193;-66
2022/09/25 02:51:28;;;;;;;33.08;23.60;;;12.10;99.90;;;;;;5015497;28;20189;-67
2022/09/25 02:54:07;;;;;;;33.55;24.77;;;12.20;99.90;;;;;;5015240;28;20219;-65
2022/09/25 02:56:40;;;;;;;36.83;25.20;;;12.20;99.90;;;;;;5013971;28;20197;-64
2022/09/25 02:59:14;;;;;;;31.55;24.48;;;12.20;99.90;;;;;;5015533;28;20220;-65
2022/09/25 03:01:45;;;;;;;31.52;23.67;;;12.20;99.90;;;;;;5015143;28;20576;-64
2022/09/25 03:04:16;;;;;;;38.13;26.50;;;12.20;99.90;;;;;;5015207;28;20228;-65
2022/09/25 03:06:45;;;;;;;40.63;28.33;;;12.20;99.90;;;;;;5014951;28;20608;-66
2022/09/25 03:09:17;;;;;;;37.20;27.60;;;12.20;99.90;;;;;;5015446;28;20665;-64
2022/09/25 03:11:45;;;;;;;40.92;28.83;;;12.20;99.90;;;;;;5015561;28;20394;-66
2022/09/25 03:14:14;;;;;;;38.65;28.27;;;12.30;99.90;;;;;;5014962;28;20597;-65
2022/09/25 03:16:47;;;;;;;43.08;28.33;;;12.30;99.90;;;;;;5015052;28;20205;-66
2022/09/25 03:19:18;;;;;;;39.63;27.75;;;12.30;99.90;;;;;;5014887;28;20200;-64
2022/09/25 03:21:47;;;;;;;39.13;29.10;;;12.30;99.90;;;;;;5014852;28;20185;-65
2022/09/25 03:24:16;;;;;;;41.60;29.17;;;12.30;99.90;;;;;;5014824;28;20229;-65
2022/09/25 03:26:45;;;;;;;39.83;27.67;;;12.40;99.90;;;;;;5014699;28;20213;-66
2022/09/25 03:29:16;;;;;;;38.08;28.02;;;12.30;99.90;;;;;;5014769;28;20189;-65
2022/09/25 03:31:46;;;;;;;32.97;24.70;;;12.30;99.90;;;;;;5014660;28;20185;-65
2022/09/25 03:34:17;;;;;;;36.85;26.95;;;12.30;99.90;;;;;;5014758;28;20697;-65
2022/09/25 03:36:46;;;;;;;37.00;26.75;;;12.30;99.90;;;;;;5014566;28;20265;-65
2022/09/25 03:39:16;;;;;;;35.47;25.98;;;12.30;99.90;;;;;;5014519;28;20205;-66
2022/09/25 03:41:46;;;;;;;36.15;26.63;;;12.40;99.90;;;;;;5015062;28;20201;-64
2022/09/25 03:44:15;;;;;;;37.28;26.05;;;12.30;99.90;;;;;;5014380;28;20218;-65
2022/09/25 03:46:43;;;;;;;36.30;25.73;;;12.30;99.90;;;;;;5014294;28;20200;-65
2022/09/25 03:49:13;;;;;;;34.67;24.58;;;12.40;99.90;;;;;;5014145;28;20209;-65
2022/09/25 03:51:42;;;;;;;34.15;25.77;;;12.40;99.90;;;;;;5014746;28;20273;-65
2022/09/25 03:54:10;;;;;;;33.78;25.02;;;12.40;99.90;;;;;;5014071;28;20232;-65
2022/09/25 03:56:40;;;;;;;34.45;22.70;;;12.40;99.90;;;;;;5014427;28;20205;-65
2022/09/25 03:59:09;;;;;;;32.33;23.85;;;12.40;99.90;;;;;;5014235;28;20201;-65
2022/09/25 04:01:37;;;;;;;33.70;23.77;;;12.40;99.90;;;;;;5014049;28;20189;-66
2022/09/25 04:04:06;;;;;;;34.25;25.10;;;12.40;99.90;;;;;;5013981;28;20232;-64
2022/09/25 04:06:36;;;;;;;33.92;25.52;;;12.40;99.90;;;;;;5013575;28;20198;-66
2022/09/25 04:09:04;;;;;;;34.67;25.27;;;12.40;99.90;;;;;;5013938;28;20225;-66
2022/09/25 04:11:33;;;;;;;39.47;27.55;;;12.40;99.90;;;;;;5013995;28;20653;-65
2022/09/25 04:14:02;;;;;;;36.08;26.50;;;12.40;99.90;;;;;;5013771;28;20221;-65
2022/09/25 04:16:31;;;;;;;32.67;25.52;;;12.40;99.90;;;;;;5013770;28;20200;-65
2022/09/25 04:18:59;;;;;;;32.75;24.73;;;12.50;99.90;;;;;;5013707;28;20193;-66
2022/09/25 04:21:28;;;;;;;33.47;25.33;;;12.40;99.90;;;;;;5013684;28;20193;-65
2022/09/25 04:26:45;;;;;;;33.08;24.63;;;12.40;99.90;;;;;;5013741;28;20185;-64
2022/09/25 04:29:14;;;;;;;32.78;24.00;;;12.40;99.90;;;;;;5013534;28;20236;-65
2022/09/25 04:31:42;;;;;;;31.65;24.55;;;12.40;99.90;;;;;;5013546;28;20220;-65
2022/09/25 04:34:10;;;;;;;31.70;24.15;;;12.40;99.90;;;;;;5013397;28;20229;-65
2022/09/25 04:36:40;;;;;;;31.60;23.70;;;12.40;99.90;;;;;;5013484;28;20196;-64
2022/09/25 04:39:10;;;;;;;34.90;25.63;;;12.40;99.90;;;;;;5013451;28;20208;-65
2022/09/25 04:41:38;;;;;;;33.28;25.15;;;12.40;99.90;;;;;;5013384;28;20199;-65
2022/09/25 04:44:07;;;;;;;31.88;24.48;;;12.40;99.90;;;;;;5013214;28;20236;-66
2022/09/25 04:46:36;;;;;;;33.00;25.20;;;12.40;99.90;;;;;;5013286;28;20569;-64
2022/09/25 04:49:05;;;;;;;33.83;25.30;;;12.40;99.90;;;;;;5013131;28;20319;-65
2022/09/25 04:51:34;;;;;;;34.17;25.00;;;12.40;99.90;;;;;;5013351;28;20200;-66
2022/09/25 04:54:02;;;;;;;38.28;27.00;;;12.40;99.90;;;;;;5013102;28;20217;-66
2022/09/25 04:56:32;;;;;;;37.33;26.52;;;12.40;99.90;;;;;;5013061;28;20193;-66
2022/09/25 04:59:01;;;;;;;34.78;26.20;;;12.40;99.90;;;;;;5013027;28;20193;-65
2022/09/25 05:01:29;;;;;;;35.13;25.67;;;12.40;99.90;;;;;;5012974;28;20193;-65
2022/09/25 05:04:02;;;;;;;34.55;25.85;;;12.40;99.90;;;;;;5013006;28;20217;-64
2022/09/25 05:06:36;;;;;;;34.08;25.65;;;12.40;99.90;;;;;;5013519;28;20200;-65
2022/09/25 05:09:04;;;;;;;35.67;25.58;;;12.40;99.90;;;;;;5012878;28;20586;-66
2022/09/25 05:11:34;;;;;;;35.40;25.50;;;12.40;99.90;;;;;;5012867;28;20653;-65
2022/09/25 05:14:03;;;;;;;36.88;25.58;;;12.40;99.90;;;;;;5012794;28;20216;-66
2022/09/25 05:16:31;;;;;;;36.88;27.30;;;12.40;99.90;;;;;;5012701;28;20193;-66
2022/09/25 05:19:00;;;;;;;36.08;25.77;;;12.40;99.90;;;;;;5012051;28;20205;-66
2022/09/25 05:21:28;;;;;;;35.75;26.60;;;12.40;99.90;;;;;;5012636;28;20200;-66
2022/09/25 05:23:57;;;;;;;35.28;26.65;;;12.50;99.90;;;;;;5012647;28;20579;-64
2022/09/25 05:26:28;;;;;;;36.10;27.85;;;12.50;99.90;;;;;;5012760;28;20201;-66
2022/09/25 05:28:58;;;;;;;36.20;26.60;;;12.50;99.90;;;;;;5014632;28;20228;-66
2022/09/25 05:31:28;;;;;;;35.50;26.95;;;12.50;99.90;;;;;;5012797;28;20661;-65
2022/09/25 05:33:56;;;;;;;36.45;26.08;;;12.50;99.90;;;;;;5012635;28;20224;-66
2022/09/25 05:36:25;;;;;;;29.77;24.00;;;12.60;99.90;;;;;;5012646;28;20586;-64
2022/09/25 05:38:54;;;;;;;32.60;24.85;;;12.50;99.90;;;;;;5012626;28;20200;-66
2022/09/25 05:41:23;;;;;;;33.28;25.30;;;12.50;99.90;;;;;;5012697;28;20559;-64
2022/09/25 05:43:53;;;;;;;33.15;25.80;;;12.60;99.90;;;;;;5012511;28;20205;-66
2022/09/25 05:46:23;;;;;;;33.03;25.15;;;12.50;99.90;;;;;;5012621;28;20196;-64
2022/09/25 05:48:52;;;;;;;35.80;25.60;;;12.50;99.90;;;;;;5012858;28;20240;-65
2022/09/25 05:51:21;;;;;;;35.13;25.48;;;12.50;99.90;;;;;;5012631;28;20638;-68
2022/09/25 05:53:49;;;;;;;34.08;23.45;;;12.60;99.90;;;;;;5012196;28;20712;-68
2022/09/25 05:56:18;;;;;;;33.22;24.10;;;12.50;99.90;;;;;;5012370;28;20197;-67
2022/09/25 05:58:47;;;;;;;33.97;24.70;;;12.50;99.90;;;;;;5012433;28;20193;-66
2022/09/25 06:01:15;;;;;;;36.15;24.70;;;12.50;99.90;;;;;;5012381;28;20207;-66
2022/09/25 06:03:46;;;;;;;34.17;23.42;;;12.60;99.90;;;;;;5052076;23;20234;-71
2022/09/25 06:06:14;;;;;;;35.22;24.73;;;12.50;99.90;;;;;;5052270;28;20188;-70
2022/09/25 06:08:43;;;;;;;34.47;24.98;;;12.60;99.90;;;;;;5051838;28;20226;-71
2022/09/25 06:11:11;;;;;;;34.25;23.92;;;12.50;99.90;;;;;;5051867;28;20195;-71
2022/09/25 06:13:45;;;;;;;34.65;24.98;;;12.50;99.90;;;;;;5051761;28;20188;-71
2022/09/25 06:16:19;;;;;;;32.78;23.60;;;12.50;99.90;;;;;;5051825;28;20191;-70
2022/09/25 06:18:50;;;;;;;36.45;26.40;;;12.50;99.90;;;;;;5051806;28;20206;-65
2022/09/25 06:21:18;;;;;;;35.97;25.80;;;12.50;99.90;;;;;;5051812;28;20199;-68
2022/09/25 06:23:47;;;;;;;37.30;25.85;;;12.50;99.90;;;;;;5051712;28;20215;-68
2022/09/25 06:26:16;;;;;;;44.00;31.35;;;12.50;99.90;;;;;;5051728;28;20648;-68
2022/09/25 06:28:44;;;;;;;44.97;29.95;;;12.50;99.90;;;;;;5051739;28;20196;-67
2022/09/25 06:31:13;;;;;;;40.35;28.90;;;12.60;99.90;;;;;;5054493;28;20196;-69
2022/09/25 06:33:42;;;;;;;44.35;29.92;;;12.60;99.90;;;;;;5055309;28;20219;-67
2022/09/25 06:36:13;;;;;;;41.65;28.63;;;12.60;99.90;;;;;;5055421;28;20199;-68
2022/09/25 06:38:42;;;;;;;45.45;30.52;;;12.60;99.90;;;;;;5055409;28;20188;-68
2022/09/25 06:41:11;;;;;;;44.60;29.35;;;12.70;99.90;;;;;;5055320;28;20192;-67
2022/09/25 06:43:39;;;;;;;42.15;29.38;;;12.70;99.90;;;;;;5055144;28;20191;-68
2022/09/25 06:46:08;;;;;;;43.08;29.98;;;12.70;99.90;;;;;;5055209;28;20204;-69
2022/09/25 06:48:39;;;;;;;45.22;28.85;;;12.80;99.90;;;;;;5055141;28;20218;-70
2022/09/25 06:51:08;;;;;;;44.78;30.42;;;12.90;99.90;;;;;;5054581;28;20212;-70
2022/09/25 06:53:38;;;;;;;48.08;30.15;;;12.90;99.90;;;;;;5054967;28;20559;-68
2022/09/25 06:56:07;;;;;;;44.58;30.45;;;12.90;99.90;;;;;;5055054;28;20188;-69
2022/09/25 06:58:35;;;;;;;48.97;32.42;;;12.90;99.90;;;;;;5054956;28;20186;-68
2022/09/25 07:01:09;;;;;;;46.05;28.92;;;12.90;99.90;;;;;;5054952;28;20204;-68
2022/09/25 07:03:46;;;;;;;46.45;30.00;;;12.90;99.90;;;;;;5054740;28;20207;-71
2022/09/25 07:06:16;;;;;;;49.10;32.78;;;12.90;99.90;;;;;;5054807;28;20184;-69
2022/09/25 07:08:47;;;;;;;52.22;33.88;;;12.90;99.90;;;;;;5054824;28;20207;-69
2022/09/25 07:11:18;;;;;;;51.17;33.63;;;12.90;99.90;;;;;;5054072;28;20235;-69
2022/09/25 07:13:51;;;;;;;44.65;28.92;;;12.90;99.90;;;;;;5054674;28;20718;-69
2022/09/25 07:16:21;;;;;;;46.97;31.08;;;13.00;99.90;;;;;;5054604;28;20545;-69
2022/09/25 07:18:51;;;;;;;44.28;29.60;;;13.00;99.90;;;;;;5054611;28;20199;-69
2022/09/25 07:21:22;;;;;;;40.70;29.60;;;13.00;99.90;;;;;;5054517;28;20184;-69
2022/09/25 07:23:52;;;;;;;44.88;30.48;;;13.00;99.90;;;;;;5054415;28;20216;-69
2022/09/25 07:26:23;;;;;;;44.40;29.42;;;13.10;99.90;;;;;;5054433;28;20207;-69
2022/09/25 07:28:55;;;;;;;50.30;31.13;;;13.10;99.90;;;;;;5054394;28;20187;-69
2022/09/25 07:31:25;;;;;;;47.72;30.83;;;13.20;99.90;;;;;;5054415;28;20219;-69
2022/09/25 07:33:54;;;;;;;47.30;29.88;;;13.20;99.90;;;;;;5054325;28;20226;-68
2022/09/25 07:36:23;;;;;;;50.92;32.53;;;13.30;99.90;;;;;;5054208;28;20668;-70
2022/09/25 07:38:53;;;;;;;44.67;30.20;;;13.40;99.90;;;;;;5054165;28;20274;-68
2022/09/25 07:41:22;;;;;;;44.38;29.40;;;13.40;99.90;;;;;;5053528;28;20203;-67
2022/09/25 07:43:56;;;;;;;47.78;29.98;;;13.40;99.90;;;;;;5053999;28;20591;-67
2022/09/25 07:46:44;;;;;;;46.72;29.92;;;13.40;99.90;;;;;;5053944;28;20226;-68
2022/09/25 07:49:14;;;;;;;41.88;28.42;;;13.50;99.90;;;;;;5054048;28;20200;-67
2022/09/25 07:51:42;;;;;;;43.75;27.58;;;13.40;99.90;;;;;;5053361;28;20239;-68
2022/09/25 07:54:12;;;;;;;46.75;29.00;;;13.40;99.90;;;;;;5053770;28;20215;-68
2022/09/25 07:56:41;;;;;;;43.60;27.40;;;13.40;99.90;;;;;;5054211;28;20199;-68
2022/09/25 07:59:09;;;;;;;41.80;28.20;;;13.40;99.90;;;;;;5053793;28;20199;-69
2022/09/25 08:01:38;;;;;;;39.28;25.75;;;13.40;99.90;;;;;;5053725;28;20232;-68
2022/09/25 08:04:12;;;;;;;39.22;24.08;;;13.50;99.90;;;;;;5053417;28;20262;-69
2022/09/25 08:06:42;;;;;;;33.92;23.42;;;13.50;99.90;;;;;;5053686;28;20199;-69
2022/09/25 08:09:12;;;;;;;38.13;25.17;;;13.70;99.90;;;;;;5053554;28;20207;-68
2022/09/25 08:11:40;;;;;;;37.70;23.65;;;13.70;99.90;;;;;;5053576;28;20215;-68
2022/09/25 08:14:13;;;;;;;36.33;24.45;;;13.90;99.90;;;;;;5053485;28;20211;-68
2022/09/25 08:16:42;;;;;;;33.40;22.25;;;13.90;99.90;;;;;;5053505;28;20184;-68
2022/09/25 08:19:11;;;;;;;29.98;21.02;;;14.00;99.90;;;;;;5053023;28;20207;-68
2022/09/25 08:21:40;;;;;;;34.58;22.40;;;13.90;99.90;;;;;;5053461;28;20204;-68
2022/09/25 08:24:09;;;;;;;28.80;21.42;;;14.00;99.90;;;;;;5053254;28;20219;-68
2022/09/25 08:26:39;;;;;;;26.10;18.13;;;14.00;99.90;;;;;;5052170;28;20690;-69
2022/09/25 08:29:10;;;;;;;27.88;19.83;;;14.10;99.90;;;;;;5053310;28;20188;-68
2022/09/25 08:31:41;;;;;;;28.90;21.13;;;14.00;99.90;;;;;;5051935;28;20699;-68
2022/09/25 08:34:11;;;;;;;27.67;19.75;;;14.10;99.90;;;;;;5053122;28;20215;-67
2022/09/25 08:37:03;;;;;;;28.38;19.98;;;14.10;99.90;;;;;;5053147;28;20191;-67
2022/09/25 08:39:33;;;;;;;29.10;21.23;;;14.10;99.90;;;;;;5053060;28;20180;-69
2022/09/25 08:42:05;;;;;;;29.27;20.88;;;14.20;99.90;;;;;;5052983;28;20196;-68
2022/09/25 08:44:40;;;;;;;27.23;19.38;;;14.20;99.90;;;;;;5053008;28;20261;-67
2022/09/25 08:50:18;;;;;;;29.55;19.95;;;14.40;99.90;;;;;;5032275;28;20226;-66
2022/09/25 08:52:52;;;;;;;25.85;19.63;;;14.50;99.90;;;;;;5052902;28;20186;-68
2022/09/25 08:56:13;;;;;;;26.73;18.92;;;14.70;99.90;;;;;;5052178;28;20224;-68
2022/09/25 08:58:24;;;;;;;28.23;19.30;;;14.80;99.90;;;;;;5052661;28;20655;-67
2022/09/25 09:00:57;;;;;;;24.77;18.35;;;14.80;99.90;;;;;;5052749;28;20198;-68
2022/09/25 09:03:29;;;;;;;21.77;16.42;;;14.70;99.90;;;;;;5052530;28;20579;-68
2022/09/25 09:06:03;;;;;;;23.77;16.98;;;14.90;99.90;;;;;;5052684;28;20576;-70
2022/09/25 09:08:36;;;;;;;23.15;16.58;;;14.80;99.90;;;;;;5052555;28;20179;-67
2022/09/25 09:11:11;;;;;;;22.40;16.20;;;14.70;99.90;;;;;;5052568;28;20220;-68
2022/09/25 09:13:50;;;;;;;22.95;16.45;;;14.60;99.90;;;;;;5052443;28;20579;-67
2022/09/25 09:16:28;;;;;;;21.27;16.17;;;14.70;99.90;;;;;;5052535;28;20184;-67
2022/09/25 09:19:02;;;;;;;23.63;16.40;;;14.60;99.90;;;;;;5052480;28;20176;-68
2022/09/25 09:21:35;;;;;;;21.38;16.88;;;14.50;99.90;;;;;;5052373;28;20188;-68
2022/09/25 09:24:16;;;;;;;21.00;16.30;;;14.50;99.90;;;;;;5052397;28;20219;-67
2022/09/25 09:27:20;;;;;;;22.88;16.42;;;14.60;99.90;;;;;;5052439;28;20179;-66
2022/09/25 09:30:09;;;;;;;23.73;18.55;;;14.70;99.90;;;;;;5052183;28;20215;-68
2022/09/25 09:32:48;;;;;;;20.15;15.57;;;14.70;99.90;;;;;;5052092;28;20235;-68
2022/09/25 09:35:27;;;;;;;19.13;14.73;;;14.60;99.90;;;;;;5052212;28;20227;-69
2022/09/25 09:38:09;;;;;;;19.67;14.40;;;14.60;99.90;;;;;;5052236;28;20184;-69
2022/09/25 09:41:04;;;;;;;19.40;15.25;;;14.60;99.90;;;;;;5052298;28;20183;-67
2022/09/25 09:43:49;;;;;;;23.45;16.58;;;14.60;99.90;;;;;;5052095;28;20210;-67
2022/09/25 09:46:39;;;;;;;21.27;16.00;;;14.80;99.90;;;;;;5052122;28;20558;-70
2022/09/25 09:49:14;;;;;;;27.50;18.80;;;14.90;99.90;;;;;;5052176;28;20199;-68
2022/09/25 09:51:47;;;;;;;28.27;19.58;;;14.70;99.90;;;;;;5051792;28;20582;-68
2022/09/25 09:54:21;;;;;;;26.98;19.20;;;14.90;99.90;;;;;;5052031;28;20699;-68
2022/09/25 09:56:52;;;;;;;22.42;15.57;;;14.80;99.90;;;;;;5052057;28;20192;-68
2022/09/25 09:59:25;;;;;;;20.73;14.45;;;14.80;99.90;;;;;;5052043;28;20188;-68
2022/09/25 10:02:01;;;;;;;23.38;18.83;;;15.00;99.90;;;;;;5052014;28;20191;-68
2022/09/25 10:04:35;;;;;;;22.92;14.77;;;15.00;99.90;;;;;;5051834;28;20233;-68
2022/09/25 10:07:08;;;;;;;18.67;14.25;;;15.00;99.90;;;;;;5056052;28;20188;-69
2022/09/25 10:09:37;;;;;;;17.35;13.13;;;15.10;99.90;;;;;;5055989;28;20206;-68
2022/09/25 10:12:13;;;;;;;18.13;13.90;;;15.00;99.90;;;;;;5056126;28;20223;-68
2022/09/25 10:14:45;;;;;;;14.07;10.27;;;15.00;99.90;;;;;;5054514;28;20212;-69
2022/09/25 10:17:17;;;;;;;14.35;11.98;;;15.00;99.90;;;;;;5055892;28;20191;-68
2022/09/25 10:19:51;;;;;;;14.07;10.80;;;15.10;99.90;;;;;;5055774;28;20200;-68
2022/09/25 10:22:22;;;;;;;11.20;9.13;;;15.10;99.90;;;;;;5055710;28;20246;-69
2022/09/25 10:24:57;;;;;;;11.90;10.13;;;15.10;99.90;;;;;;5055540;28;20703;-69
2022/09/25 10:27:29;;;;;;;11.85;8.95;;;15.10;99.90;;;;;;5055632;28;20187;-68
2022/09/25 10:30:17;;;;;;;14.63;10.32;;;15.10;99.90;;;;;;5055585;28;20188;-69
2022/09/25 10:32:55;;;;;;;12.18;9.75;;;15.10;99.90;;;;;;5055617;28;20710;-68
2022/09/25 10:35:29;;;;;;;14.85;11.63;;;15.10;99.90;;;;;;5055530;28;20222;-68
2022/09/25 10:38:00;;;;;;;10.82;8.60;;;15.10;99.90;;;;;;5055552;28;20181;-70
2022/09/25 10:40:32;;;;;;;9.77;8.73;;;15.10;99.90;;;;;;5055404;28;20646;-69
2022/09/25 10:43:16;;;;;;;11.50;9.05;;;15.00;99.90;;;;;;5055339;28;20188;-68
2022/09/25 10:45:47;;;;;;;11.60;9.25;;;14.90;99.90;;;;;;5055279;28;20226;-68
2022/09/25 10:51:20;;;;;;;19.85;12.30;;;14.60;99.90;;;;;;5055233;28;20656;-69
2022/09/25 10:53:51;;;;;;;14.95;10.82;;;14.50;99.90;;;;;;5054928;28;20243;-70
2022/09/25 10:56:25;;;;;;;17.27;10.82;;;14.30;99.90;;;;;;5055120;28;20218;-68
2022/09/25 10:58:57;;;;;;;16.80;11.98;;;14.20;99.90;;;;;;5055039;28;20186;-68
2022/09/25 11:01:33;;;;;;;17.05;12.68;;;14.00;99.90;;;;;;5055045;28;20187;-69
2022/09/25 11:04:11;;;;;;;18.85;13.05;;;13.80;99.90;;;;;;5054698;28;20222;-69
2022/09/25 11:06:44;;;;;;;17.45;13.35;;;13.70;99.90;;;;;;5054903;28;20194;-70
2022/09/25 11:09:16;;;;;;;20.17;14.32;;;13.70;99.90;;;;;;5054821;28;20195;-69
2022/09/25 11:11:48;;;;;;;20.92;15.77;;;13.70;99.90;;;;;;5054669;28;20200;-68
2022/09/25 11:14:27;;;;;;;20.77;15.25;;;13.60;99.90;;;;;;5054716;28;20215;-68
2022/09/25 11:16:57;;;;;;;18.42;15.38;;;13.60;99.90;;;;;;5053581;28;20207;-69
2022/09/25 11:19:29;;;;;;;22.52;16.17;;;13.50;99.90;;;;;;5053499;28;20188;-69
2022/09/25 11:22:07;;;;;;;19.60;16.42;;;13.60;99.90;;;;;;5054637;28;20199;-69
2022/09/25 11:24:45;;;;;;;21.70;15.70;;;13.70;99.90;;;;;;5054529;28;20215;-69
2022/09/25 11:27:18;;;;;;;18.13;14.35;;;13.70;99.90;;;;;;5054540;28;20184;-69
2022/09/25 11:29:57;;;;;;;22.73;16.60;;;13.70;99.90;;;;;;5053297;28;20196;-69
2022/09/25 11:32:33;;;;;;;27.98;19.58;;;13.70;99.90;;;;;;5054370;28;20207;-69
2022/09/25 11:35:25;;;;;;;24.17;18.20;;;13.70;99.90;;;;;;5054226;28;20219;-69
2022/09/25 11:38:03;;;;;;;25.60;18.77;;;13.80;99.90;;;;;;5054276;28;20243;-69
2022/09/25 11:43:37;;;;;;;20.85;16.83;;;14.00;99.90;;;;;;5052992;28;20199;-69
2022/09/25 11:46:18;;;;;;;20.80;15.75;;;14.10;99.90;;;;;;5054132;28;20187;-69
2022/09/25 11:48:55;;;;;;;19.35;15.70;;;14.20;99.90;;;;;;5054106;28;20195;-69
2022/09/25 11:51:39;;;;;;;19.38;14.82;;;14.20;99.90;;;;;;5053572;28;20208;-68
2022/09/25 11:54:21;;;;;;;20.45;15.82;;;14.20;99.90;;;;;;5053744;28;20247;-68
2022/09/25 11:57:09;;;;;;;21.02;15.60;;;14.20;99.90;;;;;;5053935;28;20180;-69
2022/09/25 11:59:56;;;;;;;20.48;14.45;;;14.20;99.90;;;;;;5053752;28;20675;-68
2022/09/25 12:02:39;;;;;;;20.73;15.02;;;14.30;99.90;;;;;;5054043;28;20211;-69
2022/09/25 12:05:38;;;;;;;20.48;14.93;;;14.30;99.90;;;;;;5153274;22;20249;-72
2022/09/25 12:08:23;;;;;;;20.15;15.98;;;14.30;99.90;;;;;;5073830;28;20536;-72
2022/09/25 12:11:01;;;;;;;21.75;16.98;;;14.20;99.90;;;;;;5073670;28;20191;-70
2022/09/25 12:13:39;;;;;;;23.48;17.60;;;14.10;99.90;;;;;;5073325;28;20254;-73
2022/09/25 12:16:17;;;;;;;21.10;16.48;;;14.00;99.90;;;;;;5073811;28;20213;-70
2022/09/25 12:19:09;;;;;;;24.35;18.60;;;14.00;99.90;;;;;;5073585;28;20678;-71
2022/09/25 12:21:46;;;;;;;23.23;17.08;;;14.00;99.90;;;;;;5073536;28;20559;-70
2022/09/25 12:24:33;;;;;;;22.55;16.50;;;13.90;99.90;;;;;;5072147;28;20226;-70
2022/09/25 12:27:13;;;;;;;28.15;19.10;;;13.90;99.90;;;;;;5073314;28;20531;-70
2022/09/25 12:30:14;;;;;;;22.70;18.75;;;14.00;99.90;;;;;;5073035;28;20194;-69
2022/09/25 12:33:02;;;;;;;23.20;17.58;;;14.00;99.90;;;;;;5073136;28;20192;-70
2022/09/25 12:35:40;;;;;;;19.33;13.70;;;14.00;99.90;;;;;;5073167;28;20226;-69
2022/09/25 12:38:20;;;;;;;16.90;13.38;;;13.90;99.90;;;;;;5073212;28;20194;-69
2022/09/25 12:40:56;;;;;;;22.20;15.45;;;13.80;99.90;;;;;;5073065;28;20187;-70
2022/09/25 12:43:34;;;;;;;20.90;15.52;;;13.80;99.90;;;;;;5072993;28;20548;-69
2022/09/25 12:46:09;;;;;;;21.65;14.73;;;13.80;99.90;;;;;;5073022;28;20194;-70
2022/09/25 12:48:44;;;;;;;20.55;15.07;;;13.90;99.90;;;;;;5073127;28;20183;-70
2022/09/25 12:51:20;;;;;;;22.67;15.32;;;13.90;99.90;;;;;;5073081;28;20560;-70
2022/09/25 12:53:55;;;;;;;23.83;16.13;;;14.00;99.90;;;;;;5072757;28;20230;-70
2022/09/25 12:56:30;;;;;;;21.00;14.95;;;14.10;99.90;;;;;;5073058;28;20205;-69
2022/09/25 12:59:06;;;;;;;18.67;14.07;;;14.10;99.90;;;;;;5072797;28;20199;-71
2022/09/25 13:01:44;;;;;;;17.40;12.30;;;14.10;99.90;;;;;;5072719;28;20186;-69
2022/09/25 13:04:33;;;;;;;18.40;14.48;;;14.10;99.90;;;;;;5072612;28;20223;-71
2022/09/25 13:07:11;;;;;;;18.85;13.77;;;14.10;99.90;;;;;;5072667;28;20183;-71
2022/09/25 13:09:43;;;;;;;17.00;12.85;;;14.20;99.90;;;;;;5072627;28;20194;-71
2022/09/25 13:12:23;;;;;;;17.52;13.15;;;14.10;99.90;;;;;;5072622;28;20183;-70
2022/09/25 13:14:56;;;;;;;19.55;14.00;;;14.10;99.90;;;;;;5072378;28;20585;-70
2022/09/25 13:17:24;;;;;;;17.85;13.40;;;14.10;99.90;;;;;;5071423;28;20179;-70